Time;durP1;ratioP1;P1;durP2;ratioP2;P2;SDS_P1;SDS_P2;PMS_P1;PMS_P2;Temp;Humidity;BMP_temperature;BMP_pressure;BME280_temperature;BME280_humidity;BME280_pressure;Samples;Min_cycle;Max_cycle;Signal;HPM_P1;HPM_P2
2023/03/05 00:00:56;;;;;;;11.20;4.95;;;4.10;99.90;;;;;;5068877;28;20415;-76
2023/03/05 00:03:23;;;;;;;12.73;3.47;;;4.10;99.90;;;;;;5068796;28;20203;-74
2023/03/05 00:05:57;;;;;;;14.25;3.70;;;4.10;99.90;;;;;;5071216;28;20256;-74
2023/03/05 00:08:24;;;;;;;15.50;3.53;;;4.10;99.90;;;;;;5071041;28;20245;-74
2023/03/05 00:10:56;;;;;;;26.52;4.07;;;4.20;99.90;;;;;;5075752;28;20210;-74
2023/03/05 00:13:24;;;;;;;10.95;3.85;;;4.30;99.90;;;;;;5074333;28;20202;-75
2023/03/05 00:15:53;;;;;;;10.02;3.10;;;4.30;99.90;;;;;;5074877;28;20198;-76
2023/03/05 00:18:22;;;;;;;7.45;3.05;;;4.30;99.90;;;;;;5074938;28;20227;-74
2023/03/05 00:20:49;;;;;;;10.63;3.30;;;4.30;99.90;;;;;;5074492;28;20253;-75
2023/03/05 00:23:16;;;;;;;11.25;3.15;;;4.30;99.90;;;;;;5074857;28;20252;-75
2023/03/05 00:25:44;;;;;;;12.05;4.35;;;4.30;99.90;;;;;;5074609;28;20637;-75
2023/03/05 00:28:11;;;;;;;9.27;3.30;;;4.30;99.90;;;;;;5075241;28;20652;-74
2023/03/05 00:30:40;;;;;;;9.55;2.95;;;4.30;99.90;;;;;;5075419;28;20626;-75
2023/03/05 00:33:13;;;;;;;8.82;2.42;;;4.40;99.90;;;;;;5075756;28;20195;-76
2023/03/05 00:35:41;;;;;;;9.70;2.08;;;4.40;99.90;;;;;;5075482;28;20207;-76
2023/03/05 00:38:09;;;;;;;10.43;2.55;;;4.50;99.90;;;;;;5074887;28;20310;-75
2023/03/05 00:40:37;;;;;;;7.28;2.78;;;4.50;99.90;;;;;;5072294;28;20195;-75
2023/03/05 00:43:05;;;;;;;10.15;3.00;;;4.50;99.90;;;;;;5075765;28;20302;-75
2023/03/05 00:45:32;;;;;;;11.90;3.58;;;4.50;99.90;;;;;;5075817;28;20243;-75
2023/03/05 00:48:01;;;;;;;6.53;3.10;;;4.60;99.90;;;;;;5076344;28;20203;-74
2023/03/05 00:50:28;;;;;;;21.23;2.53;;;4.60;99.90;;;;;;5085467;28;20195;-75
2023/03/05 00:52:55;;;;;;;12.15;2.20;;;4.60;99.90;;;;;;5099668;28;20197;-73
2023/03/05 00:55:31;;;;;;;8.43;2.75;;;4.60;99.90;;;;;;5084814;28;20254;-74
2023/03/05 00:57:58;;;;;;;4.85;2.47;;;4.60;99.90;;;;;;5088605;28;20231;-72
2023/03/05 01:00:25;;;;;;;7.70;2.47;;;4.70;99.90;;;;;;5077733;28;20198;-75
2023/03/05 01:02:52;;;;;;;8.32;2.63;;;4.60;99.90;;;;;;5071133;28;20199;-75
2023/03/05 01:05:21;;;;;;;11.93;2.50;;;4.60;99.90;;;;;;5071777;28;20202;-75
2023/03/05 01:07:48;;;;;;;10.75;3.38;;;4.70;99.90;;;;;;5074898;28;20233;-74
2023/03/05 01:10:15;;;;;;;10.38;2.55;;;4.70;99.90;;;;;;5073943;28;20201;-74
2023/03/05 01:12:42;;;;;;;10.55;2.25;;;4.70;99.90;;;;;;5073961;28;20608;-75
2023/03/05 01:15:10;;;;;;;7.25;3.17;;;4.60;99.90;;;;;;5074314;28;20590;-74
2023/03/05 01:17:36;;;;;;;10.70;2.35;;;4.60;99.90;;;;;;5080652;28;20264;-74
2023/03/05 01:20:06;;;;;;;5.88;2.17;;;4.50;99.90;;;;;;5072138;28;20280;-74
2023/03/05 01:22:35;;;;;;;6.07;2.00;;;4.40;99.90;;;;;;5074324;28;20721;-75
2023/03/05 01:25:03;;;;;;;7.50;2.25;;;4.30;99.90;;;;;;5071561;28;20219;-76
2023/03/05 01:27:30;;;;;;;6.93;2.97;;;4.40;99.90;;;;;;5061603;28;20543;-74
2023/03/05 01:29:57;;;;;;;7.63;2.42;;;4.40;99.90;;;;;;5064860;28;20699;-74
2023/03/05 01:32:24;;;;;;;8.68;2.40;;;4.30;99.90;;;;;;5065975;28;20611;-75
2023/03/05 01:34:51;;;;;;;9.50;3.13;;;4.30;99.90;;;;;;5074201;28;20235;-75
2023/03/05 01:37:18;;;;;;;12.60;3.42;;;4.40;99.90;;;;;;5073657;28;20661;-76
2023/03/05 01:39:46;;;;;;;4.47;2.08;;;4.20;99.90;;;;;;5072327;28;20266;-75
2023/03/05 01:42:14;;;;;;;6.40;2.67;;;4.20;99.90;;;;;;5070934;28;20329;-75
2023/03/05 01:45:00;;;;;;;7.43;2.55;;;4.30;99.90;;;;;;5073196;28;20262;-76
2023/03/05 01:47:27;;;;;;;4.70;2.03;;;4.20;99.90;;;;;;5072659;28;20199;-74
2023/03/05 01:50:01;;;;;;;4.97;2.97;;;4.20;99.90;;;;;;5073225;28;20234;-74
2023/03/05 01:52:31;;;;;;;13.02;1.95;;;4.20;99.90;;;;;;5071776;28;20298;-75
2023/03/05 01:55:03;;;;;;;8.88;2.05;;;4.20;99.90;;;;;;5072471;28;20602;-74
2023/03/05 01:57:39;;;;;;;6.22;2.00;;;4.20;99.90;;;;;;5066160;28;20571;-75
2023/03/05 02:00:11;;;;;;;8.38;2.50;;;4.20;99.90;;;;;;5064870;28;20309;-76
2023/03/05 02:02:53;;;;;;;7.00;2.05;;;4.10;99.90;;;;;;5067951;28;20286;-77
2023/03/05 02:05:30;;;;;;;6.57;2.10;;;4.10;99.90;;;;;;5073915;28;20246;-76
2023/03/05 02:07:58;;;;;;;13.15;2.50;;;4.00;99.90;;;;;;5070220;28;20281;-75
2023/03/05 02:10:29;;;;;;;9.52;2.70;;;4.00;99.90;;;;;;5073117;28;20295;-74
2023/03/05 02:13:00;;;;;;;8.52;2.10;;;4.00;99.90;;;;;;5077147;28;20279;-74
2023/03/05 02:15:35;;;;;;;5.05;2.85;;;4.00;99.90;;;;;;5070537;28;20294;-74
2023/03/05 02:18:02;;;;;;;6.00;3.22;;;3.90;99.90;;;;;;5075000;28;20271;-73
2023/03/05 02:21:06;;;;;;;6.80;3.35;;;4.00;99.90;;;;;;5073920;28;20269;-75
2023/03/05 02:23:36;;;;;;;7.28;3.50;;;4.00;99.90;;;;;;5074173;28;20234;-75
2023/03/05 02:26:04;;;;;;;2.35;2.00;;;4.00;99.90;;;;;;5073706;28;20179;-75
2023/03/05 02:28:36;;;;;;;5.80;4.07;;;4.10;99.90;;;;;;5063179;28;20243;-75
2023/03/05 02:31:08;;;;;;;9.15;3.08;;;4.20;99.90;;;;;;5068867;28;20206;-73
2023/03/05 02:33:35;;;;;;;6.25;3.50;;;4.10;99.90;;;;;;5081544;28;20209;-75
2023/03/05 02:36:02;;;;;;;10.98;4.05;;;4.10;99.90;;;;;;5075400;28;20210;-75
2023/03/05 02:38:31;;;;;;;6.15;3.13;;;4.10;99.90;;;;;;5091139;28;20261;-74
2023/03/05 02:41:00;;;;;;;8.75;3.00;;;4.00;99.90;;;;;;5084108;28;20285;-74
2023/03/05 02:43:27;;;;;;;6.32;2.60;;;4.00;99.90;;;;;;5075768;28;20255;-74
2023/03/05 02:45:55;;;;;;;5.55;3.00;;;4.00;99.90;;;;;;5081195;28;20273;-74
2023/03/05 02:48:22;;;;;;;6.50;2.97;;;4.10;99.90;;;;;;5073887;28;20223;-76
2023/03/05 02:50:51;;;;;;;9.65;3.60;;;4.10;99.90;;;;;;5070036;28;20226;-75
2023/03/05 02:53:18;;;;;;;5.80;2.20;;;4.10;99.90;;;;;;5073987;28;20198;-74
2023/03/05 02:55:47;;;;;;;5.75;2.20;;;4.10;99.90;;;;;;5066429;28;20218;-75
2023/03/05 02:58:16;;;;;;;4.30;2.35;;;4.10;99.90;;;;;;5073397;28;20309;-75
2023/03/05 03:00:45;;;;;;;5.95;2.55;;;4.10;99.90;;;;;;5072221;28;20348;-74
2023/03/05 03:03:12;;;;;;;3.50;2.17;;;4.00;99.90;;;;;;5066905;28;20697;-76
2023/03/05 03:05:40;;;;;;;5.45;2.03;;;4.00;99.90;;;;;;5071049;28;20226;-74
2023/03/05 03:08:09;;;;;;;7.78;2.42;;;4.10;99.90;;;;;;5058318;28;20760;-75
2023/03/05 03:10:36;;;;;;;5.45;2.40;;;4.00;99.90;;;;;;5065619;28;20198;-75
2023/03/05 03:13:03;;;;;;;6.40;2.60;;;4.00;99.90;;;;;;5068369;28;20223;-76
2023/03/05 03:15:31;;;;;;;4.53;2.15;;;4.00;99.90;;;;;;5063407;28;20752;-75
2023/03/05 03:17:59;;;;;;;4.20;2.10;;;4.00;99.90;;;;;;5070652;28;20627;-74
2023/03/05 03:20:26;;;;;;;4.70;2.30;;;4.00;99.90;;;;;;5071238;28;20231;-75
2023/03/05 03:22:53;;;;;;;2.90;2.70;;;4.10;99.90;;;;;;5071988;28;20238;-74
2023/03/05 03:25:22;;;;;;;9.00;2.47;;;4.10;99.90;;;;;;5071272;28;20206;-75
2023/03/05 03:27:49;;;;;;;4.50;2.42;;;4.10;99.90;;;;;;5065301;28;20209;-75
2023/03/05 03:30:16;;;;;;;4.50;2.75;;;3.90;99.90;;;;;;5066973;28;20211;-74
2023/03/05 03:32:45;;;;;;;11.27;2.78;;;4.00;99.90;;;;;;5072619;28;20219;-74
2023/03/05 03:35:13;;;;;;;3.92;3.00;;;4.00;99.90;;;;;;5072641;28;20564;-75
2023/03/05 03:37:41;;;;;;;3.53;2.55;;;4.00;99.90;;;;;;5071843;28;20207;-75
2023/03/05 03:40:11;;;;;;;3.55;2.75;;;4.00;99.90;;;;;;5069071;28;20684;-75
2023/03/05 03:42:40;;;;;;;10.68;3.25;;;4.00;99.90;;;;;;5072555;28;20206;-74
2023/03/05 03:45:08;;;;;;;8.20;3.65;;;4.00;99.90;;;;;;5083795;28;20190;-74
2023/03/05 03:47:35;;;;;;;6.35;3.80;;;4.00;99.90;;;;;;5076400;28;20288;-75
2023/03/05 03:50:04;;;;;;;12.05;4.22;;;4.00;99.90;;;;;;5075431;28;20673;-75
2023/03/05 03:52:31;;;;;;;7.65;2.67;;;4.10;99.90;;;;;;5076115;28;20239;-75
2023/03/05 03:55:00;;;;;;;4.43;3.38;;;4.10;99.90;;;;;;5074665;28;20299;-74
2023/03/05 03:57:28;;;;;;;3.40;2.10;;;4.20;99.90;;;;;;5075577;28;20256;-74
2023/03/05 03:59:55;;;;;;;12.98;3.65;;;4.30;99.90;;;;;;5070142;28;20226;-74
2023/03/05 04:02:22;;;;;;;5.05;2.65;;;4.20;99.90;;;;;;5071891;28;20641;-75
2023/03/05 04:04:51;;;;;;;4.85;2.22;;;4.20;99.90;;;;;;5070463;28;20226;-75
2023/03/05 04:07:19;;;;;;;6.85;2.97;;;4.00;99.90;;;;;;5072258;28;20213;-74
2023/03/05 04:09:46;;;;;;;5.35;2.17;;;3.90;99.90;;;;;;5068520;28;20596;-75
2023/03/05 04:12:16;;;;;;;5.75;3.47;;;3.80;99.90;;;;;;5075577;28;20278;-74
2023/03/05 04:14:44;;;;;;;7.10;2.20;;;3.90;99.90;;;;;;5073304;28;20214;-74
2023/03/05 04:17:11;;;;;;;5.25;2.78;;;4.00;99.90;;;;;;5069124;28;20233;-74
2023/03/05 04:19:38;;;;;;;12.00;3.10;;;4.10;99.90;;;;;;5074574;28;20244;-75
2023/03/05 04:22:06;;;;;;;6.43;3.22;;;4.00;99.90;;;;;;5074987;28;20203;-75
2023/03/05 04:24:34;;;;;;;5.07;3.72;;;4.00;99.90;;;;;;5075308;28;20241;-74
2023/03/05 04:27:03;;;;;;;8.30;3.17;;;4.10;99.90;;;;;;5070009;28;20278;-74
2023/03/05 04:29:30;;;;;;;4.50;2.70;;;4.10;99.90;;;;;;5064543;28;20259;-75
2023/03/05 04:31:57;;;;;;;5.70;2.75;;;4.00;99.90;;;;;;5073291;28;20223;-74
2023/03/05 04:34:24;;;;;;;7.22;3.60;;;4.00;99.90;;;;;;5068215;28;20278;-75
2023/03/05 04:36:51;;;;;;;4.50;3.03;;;4.00;99.90;;;;;;5067861;28;20217;-75
2023/03/05 04:39:19;;;;;;;7.22;2.95;;;4.00;99.90;;;;;;5070433;28;20266;-75
2023/03/05 04:41:48;;;;;;;4.90;3.20;;;3.90;99.90;;;;;;5068668;28;20191;-75
2023/03/05 04:44:16;;;;;;;6.28;3.20;;;3.90;99.90;;;;;;5068836;28;20283;-75
2023/03/05 04:46:43;;;;;;;4.00;2.50;;;3.90;99.90;;;;;;5074735;28;20198;-74
2023/03/05 04:49:10;;;;;;;5.97;3.13;;;3.80;99.90;;;;;;5070597;28;20231;-74
2023/03/05 04:51:37;;;;;;;8.68;3.88;;;3.80;99.90;;;;;;5074023;28;20231;-74
2023/03/05 04:54:04;;;;;;;6.35;3.15;;;3.80;99.90;;;;;;5072575;28;20234;-74
2023/03/05 04:56:32;;;;;;;5.45;2.97;;;3.70;99.90;;;;;;5073617;28;20689;-74
2023/03/05 04:59:01;;;;;;;6.07;3.15;;;3.80;99.90;;;;;;5064927;28;20230;-74
2023/03/05 05:01:28;;;;;;;5.20;3.28;;;3.70;99.90;;;;;;5065545;28;20210;-73
2023/03/05 05:03:55;;;;;;;5.45;3.28;;;3.70;99.90;;;;;;5068600;28;20665;-73
2023/03/05 05:06:22;;;;;;;7.75;3.40;;;3.70;99.90;;;;;;5067214;28;20206;-74
2023/03/05 05:08:49;;;;;;;7.13;3.33;;;3.70;99.90;;;;;;5067445;28;20575;-74
2023/03/05 05:11:16;;;;;;;6.45;2.80;;;3.70;99.90;;;;;;5069250;28;20287;-73
2023/03/05 05:13:49;;;;;;;5.45;2.95;;;3.80;99.90;;;;;;5069920;28;20206;-73
2023/03/05 05:16:18;;;;;;;7.57;3.25;;;3.80;99.90;;;;;;5068461;28;20219;-74
2023/03/05 05:18:45;;;;;;;6.35;3.65;;;3.80;99.90;;;;;;5068960;28;20222;-74
2023/03/05 05:21:14;;;;;;;5.90;3.38;;;3.70;99.90;;;;;;5067080;28;20720;-73
2023/03/05 05:23:41;;;;;;;3.25;2.40;;;3.80;99.90;;;;;;5066567;28;20261;-73
2023/03/05 05:26:08;;;;;;;8.90;2.90;;;3.80;99.90;;;;;;5070099;28;20542;-74
2023/03/05 05:28:37;;;;;;;4.15;2.97;;;3.80;99.90;;;;;;5066214;28;20634;-75
2023/03/05 05:31:07;;;;;;;8.30;2.75;;;3.80;99.90;;;;;;5072866;28;20673;-75
2023/03/05 05:33:36;;;;;;;4.88;2.20;;;3.90;99.90;;;;;;5067753;28;20333;-74
2023/03/05 05:36:04;;;;;;;4.35;3.50;;;3.90;99.90;;;;;;5073373;28;20309;-74
2023/03/05 05:38:32;;;;;;;6.07;2.47;;;3.90;99.90;;;;;;5072465;28;20324;-74
2023/03/05 05:41:04;;;;;;;5.07;2.90;;;3.90;99.90;;;;;;5073299;28;20649;-74
2023/03/05 05:43:31;;;;;;;3.47;2.47;;;3.90;99.90;;;;;;5058841;28;20204;-74
2023/03/05 05:46:02;;;;;;;4.20;2.42;;;3.90;99.90;;;;;;5075102;28;20230;-73
2023/03/05 05:48:29;;;;;;;3.53;3.10;;;3.90;99.90;;;;;;5058649;28;20699;-75
2023/03/05 05:50:58;;;;;;;5.35;2.35;;;3.80;99.90;;;;;;5069296;28;20237;-74
2023/03/05 05:53:26;;;;;;;3.10;2.58;;;3.70;99.90;;;;;;5066586;28;20286;-75
2023/03/05 05:55:53;;;;;;;6.00;2.80;;;3.50;99.90;;;;;;5063745;28;20218;-74
2023/03/05 05:58:20;;;;;;;2.80;2.60;;;3.50;99.90;;;;;;5072734;28;20251;-74
2023/03/05 06:00:47;;;;;;;7.07;2.72;;;3.30;99.90;;;;;;5070526;28;20267;-74
2023/03/05 06:03:14;;;;;;;9.32;3.70;;;3.40;99.90;;;;;;5072639;28;20320;-74
2023/03/05 06:05:42;;;;;;;6.35;3.53;;;3.30;99.90;;;;;;5069939;28;20205;-75
2023/03/05 06:08:11;;;;;;;3.63;3.33;;;3.40;99.90;;;;;;5072105;28;20704;-75
2023/03/05 06:10:37;;;;;;;4.20;3.28;;;3.30;99.90;;;;;;5071123;28;20199;-73
2023/03/05 06:13:04;;;;;;;5.28;3.28;;;3.30;99.90;;;;;;5073075;28;20198;-74
2023/03/05 06:15:32;;;;;;;5.25;3.25;;;3.40;99.90;;;;;;5072677;28;20280;-75
2023/03/05 06:17:59;;;;;;;5.80;3.55;;;3.40;99.90;;;;;;5072348;28;20194;-75
2023/03/05 06:20:27;;;;;;;10.55;4.03;;;3.30;99.90;;;;;;5072205;28;20292;-74
2023/03/05 06:22:54;;;;;;;6.55;3.05;;;3.30;99.90;;;;;;5069582;28;20215;-76
2023/03/05 06:25:22;;;;;;;7.03;3.58;;;3.40;99.90;;;;;;5069302;28;20679;-75
2023/03/05 06:27:49;;;;;;;5.03;2.83;;;3.50;99.90;;;;;;5070625;28;20202;-74
2023/03/05 06:30:16;;;;;;;15.65;3.90;;;3.50;99.90;;;;;;5070424;28;20215;-75
2023/03/05 06:32:43;;;;;;;4.72;3.28;;;3.60;99.90;;;;;;5071449;28;20195;-76
2023/03/05 06:35:10;;;;;;;4.40;3.58;;;3.70;99.90;;;;;;5068430;28;20199;-74
2023/03/05 06:37:37;;;;;;;7.93;2.85;;;3.90;99.90;;;;;;5073385;28;20253;-74
2023/03/05 06:40:05;;;;;;;4.35;2.85;;;3.90;99.90;;;;;;5072311;28;20251;-74
2023/03/05 06:42:34;;;;;;;3.90;3.00;;;4.00;99.90;;;;;;5071011;28;20280;-75
2023/03/05 06:45:01;;;;;;;7.28;2.60;;;4.00;99.90;;;;;;5073931;28;20561;-73
2023/03/05 06:47:28;;;;;;;18.30;4.05;;;4.00;99.90;;;;;;5064418;28;20657;-75
2023/03/05 06:49:55;;;;;;;7.15;2.85;;;4.00;99.90;;;;;;5068905;28;20229;-75
2023/03/05 06:52:22;;;;;;;4.85;2.55;;;4.00;99.90;;;;;;5065080;28;20237;-75
2023/03/05 06:54:49;;;;;;;5.15;3.65;;;4.00;99.90;;;;;;5061994;28;20278;-74
2023/03/05 06:57:15;;;;;;;11.10;3.72;;;3.90;99.90;;;;;;5068276;28;20719;-74
2023/03/05 06:59:44;;;;;;;7.35;3.67;;;3.90;99.90;;;;;;5070574;28;20266;-74
2023/03/05 07:02:12;;;;;;;6.15;3.97;;;3.70;99.90;;;;;;5069647;28;20725;-74
2023/03/05 07:04:40;;;;;;;6.65;4.43;;;3.70;99.90;;;;;;5070791;28;20658;-74
2023/03/05 07:07:07;;;;;;;7.43;4.72;;;3.80;99.90;;;;;;5065530;28;20235;-73
2023/03/05 07:09:34;;;;;;;10.30;7.00;;;4.00;99.90;;;;;;5067779;28;20218;-74
2023/03/05 07:12:01;;;;;;;12.38;7.50;;;4.10;99.90;;;;;;5066571;28;20226;-74
2023/03/05 07:14:28;;;;;;;9.75;7.65;;;4.20;99.90;;;;;;5068308;28;20575;-75
2023/03/05 07:16:56;;;;;;;11.43;7.78;;;4.20;99.90;;;;;;5070808;28;20309;-75
2023/03/05 07:19:23;;;;;;;15.27;8.32;;;4.30;99.90;;;;;;5072712;28;20262;-76
2023/03/05 07:21:50;;;;;;;13.05;7.07;;;4.30;99.90;;;;;;5071450;28;20689;-74
2023/03/05 07:24:18;;;;;;;10.98;6.82;;;4.50;99.90;;;;;;5073259;28;20660;-75
2023/03/05 07:26:44;;;;;;;9.88;5.30;;;4.50;99.90;;;;;;5073006;28;20299;-74
2023/03/05 07:29:11;;;;;;;7.40;4.55;;;4.50;99.90;;;;;;5073130;28;20313;-74
2023/03/05 07:31:38;;;;;;;9.90;4.25;;;4.50;99.90;;;;;;5073188;28;20233;-74
2023/03/05 07:34:06;;;;;;;7.95;4.72;;;4.50;99.90;;;;;;5074610;28;20209;-74
2023/03/05 07:36:41;;;;;;;8.45;3.72;;;4.40;99.90;;;;;;5072381;28;20302;-75
2023/03/05 07:39:11;;;;;;;3.75;2.20;;;4.40;99.90;;;;;;5068628;28;20222;-74
2023/03/05 07:41:39;;;;;;;4.70;2.30;;;4.40;99.90;;;;;;5058132;28;20306;-74
2023/03/05 07:44:06;;;;;;;7.88;3.03;;;4.40;99.90;;;;;;5063854;28;20199;-74
2023/03/05 07:46:34;;;;;;;6.05;2.30;;;4.40;99.90;;;;;;5069409;28;20227;-73
2023/03/05 07:49:01;;;;;;;3.30;2.03;;;4.50;99.90;;;;;;5072149;28;20226;-74
2023/03/05 07:51:31;;;;;;;2.95;2.42;;;4.50;99.90;;;;;;5064708;28;20204;-73
2023/03/05 07:53:59;;;;;;;4.60;1.60;;;4.50;99.90;;;;;;5064516;28;20196;-73
2023/03/05 07:56:30;;;;;;;9.70;2.30;;;4.50;99.90;;;;;;5071230;28;20305;-74
2023/03/05 07:58:57;;;;;;;1.50;1.40;;;4.40;99.90;;;;;;5071475;28;20223;-73
2023/03/05 08:01:24;;;;;;;9.57;3.53;;;4.40;99.90;;;;;;5077040;28;20602;-74
2023/03/05 08:03:51;;;;;;;4.03;2.75;;;4.50;99.90;;;;;;5073911;28;20223;-76
2023/03/05 08:06:18;;;;;;;5.80;2.72;;;4.50;99.90;;;;;;5078955;28;20191;-73
2023/03/05 08:08:47;;;;;;;4.13;2.83;;;4.60;99.90;;;;;;5080150;28;20222;-74
2023/03/05 08:11:15;;;;;;;5.30;3.47;;;4.60;99.90;;;;;;5065426;28;20257;-74
2023/03/05 08:13:44;;;;;;;8.32;3.60;;;4.60;99.90;;;;;;5073568;28;20287;-72
2023/03/05 08:16:13;;;;;;;5.32;3.28;;;4.80;99.90;;;;;;5068212;28;20203;-73
2023/03/05 08:18:40;;;;;;;3.80;2.38;;;5.10;99.90;;;;;;5072412;28;20766;-72
2023/03/05 08:21:15;;;;;;;4.97;1.65;;;5.40;99.90;;;;;;5074841;28;20571;-72
2023/03/05 08:23:42;;;;;;;3.13;2.17;;;5.50;99.90;;;;;;5074280;28;20198;-75
2023/03/05 08:26:13;;;;;;;5.65;1.90;;;5.80;99.90;;;;;;5075897;28;20204;-73
2023/03/05 08:28:41;;;;;;;1.88;1.10;;;6.70;99.90;;;;;;5066320;28;20767;-74
2023/03/05 08:31:12;;;;;;;2.58;1.73;;;7.20;99.90;;;;;;5065846;28;20210;-71
2023/03/05 08:33:39;;;;;;;2.65;0.98;;;7.60;99.90;;;;;;5074233;28;20252;-74
2023/03/05 08:36:09;;;;;;;6.03;2.22;;;7.60;99.90;;;;;;5069961;28;20205;-73
2023/03/05 08:38:37;;;;;;;3.65;2.00;;;7.60;99.90;;;;;;5068464;28;20223;-72
2023/03/05 08:41:04;;;;;;;2.45;1.10;;;7.60;99.90;;;;;;5072931;28;20681;-74
2023/03/05 08:43:33;;;;;;;5.93;1.83;;;8.00;99.90;;;;;;5073217;28;20199;-74
2023/03/05 08:46:01;;;;;;;8.77;1.85;;;8.10;99.90;;;;;;5074191;28;20272;-74
2023/03/05 08:48:28;;;;;;;3.53;1.05;;;8.20;99.90;;;;;;5073802;28;20760;-72
2023/03/05 08:50:56;;;;;;;2.97;1.00;;;8.50;99.90;;;;;;5071169;28;20211;-74
2023/03/05 08:53:23;;;;;;;5.35;2.40;;;8.70;99.90;;;;;;5074036;28;20210;-72
2023/03/05 08:55:55;;;;;;;1.67;1.15;;;8.80;99.90;;;;;;5070538;28;20717;-72
2023/03/05 08:58:22;;;;;;;3.50;1.80;;;9.30;99.90;;;;;;5072562;28;20265;-73
2023/03/05 09:00:52;;;;;;;4.35;1.67;;;10.00;99.90;;;;;;5066578;28;20234;-73
2023/03/05 09:03:21;;;;;;;7.80;2.10;;;10.10;99.90;;;;;;5069540;28;20540;-72
2023/03/05 09:05:51;;;;;;;3.33;1.80;;;9.70;99.90;;;;;;5069873;28;20211;-74
2023/03/05 09:08:20;;;;;;;5.53;2.20;;;9.30;99.90;;;;;;5069858;28;20241;-74
2023/03/05 09:10:47;;;;;;;4.30;1.98;;;8.70;99.90;;;;;;5064406;28;20285;-73
2023/03/05 09:13:15;;;;;;;2.72;1.45;;;8.10;99.90;;;;;;5070109;28;20286;-74
2023/03/05 09:15:43;;;;;;;4.22;1.48;;;7.30;99.90;;;;;;5070033;28;20225;-75
2023/03/05 09:18:11;;;;;;;2.63;2.15;;;7.10;99.90;;;;;;5071971;28;20223;-76
2023/03/05 09:20:38;;;;;;;4.30;1.55;;;6.90;99.90;;;;;;5072142;28;20215;-74
2023/03/05 09:23:05;;;;;;;2.70;1.10;;;6.90;99.90;;;;;;5070976;28;20297;-73
2023/03/05 09:25:32;;;;;;;5.57;0.98;;;6.90;99.90;;;;;;5069389;28;20208;-76
2023/03/05 09:27:59;;;;;;;2.55;1.10;;;6.80;99.90;;;;;;5069664;28;20724;-74
2023/03/05 09:30:26;;;;;;;2.97;1.40;;;6.70;99.90;;;;;;5067964;28;20209;-75
2023/03/05 09:32:53;;;;;;;1.70;0.70;;;6.60;99.90;;;;;;5071298;28;20221;-74
2023/03/05 09:35:22;;;;;;;4.10;1.15;;;6.90;99.90;;;;;;5071431;28;20293;-75
2023/03/05 09:37:51;;;;;;;5.15;1.63;;;6.90;99.90;;;;;;5071429;28;20270;-75
2023/03/05 09:40:20;;;;;;;3.47;1.40;;;6.90;99.90;;;;;;5068677;28;20205;-73
2023/03/05 09:43:01;;;;;;;2.75;1.27;;;7.20;99.90;;;;;;5063447;28;20237;-74
2023/03/05 09:45:33;;;;;;;3.25;1.45;;;7.40;99.90;;;;;;5070410;28;20210;-74
2023/03/05 09:48:09;;;;;;;7.55;1.27;;;7.70;99.90;;;;;;5066571;28;20284;-75
2023/03/05 09:50:44;;;;;;;6.45;1.48;;;7.90;99.90;;;;;;5066243;28;20287;-73
2023/03/05 09:53:23;;;;;;;5.93;2.40;;;8.10;99.90;;;;;;5069021;28;20198;-75
2023/03/05 09:55:53;;;;;;;3.38;1.40;;;8.20;99.90;;;;;;5066380;28;20202;-75
2023/03/05 09:58:35;;;;;;;4.57;1.00;;;8.50;99.90;;;;;;5069913;28;20222;-73
2023/03/05 10:01:04;;;;;;;2.55;1.00;;;8.50;99.90;;;;;;5065508;28;20199;-76
2023/03/05 10:03:50;;;;;;;1.80;1.02;;;8.70;99.90;;;;;;5072935;28;20527;-74
2023/03/05 10:06:24;;;;;;;1.30;0.80;;;8.90;99.90;;;;;;5064243;28;20214;-75
2023/03/05 10:09:07;;;;;;;8.18;1.63;;;8.90;99.90;;;;;;5063091;28;20241;-74
2023/03/05 10:11:41;;;;;;;2.72;1.20;;;8.70;99.90;;;;;;5058208;28;20286;-76
2023/03/05 10:14:14;;;;;;;2.47;1.70;;;8.60;99.90;;;;;;5056911;28;20199;-77
2023/03/05 10:16:55;;;;;;;4.07;1.30;;;8.50;99.90;;;;;;5065871;28;20215;-75
2023/03/05 10:19:41;;;;;;;9.73;1.25;;;8.30;99.90;;;;;;5066461;28;20643;-75
2023/03/05 10:22:17;;;;;;;7.72;1.27;;;8.20;99.90;;;;;;5060091;28;20227;-74
2023/03/05 10:24:58;;;;;;;4.22;1.08;;;8.10;99.90;;;;;;5068255;28;20285;-75
2023/03/05 10:27:38;;;;;;;2.15;1.30;;;8.30;99.90;;;;;;5066523;28;20286;-74
2023/03/05 10:30:19;;;;;;;1.45;1.00;;;8.30;99.90;;;;;;5061316;28;20326;-76
2023/03/05 10:32:53;;;;;;;2.83;0.85;;;9.00;99.90;;;;;;5068305;28;20286;-75
2023/03/05 10:35:49;;;;;;;2.88;0.95;;;9.60;99.90;;;;;;5066561;28;20228;-76
2023/03/05 10:38:44;;;;;;;1.10;1.00;;;9.80;99.90;;;;;;5079242;28;20258;-76
2023/03/05 10:41:19;;;;;;;3.15;1.85;;;9.70;99.90;;;;;;5065001;28;20207;-75
2023/03/05 10:43:52;;;;;;;5.50;1.70;;;9.70;99.90;;;;;;5065340;28;20198;-75
2023/03/05 10:46:24;;;;;;;2.17;1.30;;;9.40;99.90;;;;;;5066775;28;20671;-76
2023/03/05 10:48:54;;;;;;;3.28;2.05;;;8.90;99.90;;;;;;5064081;28;20657;-75
2023/03/05 10:51:34;;;;;;;7.20;3.28;;;8.30;99.90;;;;;;5070148;28;20254;-75
2023/03/05 10:54:09;;;;;;;3.88;2.00;;;8.00;99.90;;;;;;5067078;28;20202;-77
2023/03/05 10:56:36;;;;;;;4.60;2.92;;;7.70;99.90;;;;;;5070317;28;20209;-76
2023/03/05 10:59:05;;;;;;;2.88;2.67;;;7.50;99.90;;;;;;5068208;28;20381;-76
2023/03/05 11:01:32;;;;;;;3.67;0.95;;;7.30;99.90;;;;;;5074582;28;20261;-75
2023/03/05 11:04:02;;;;;;;4.03;1.02;;;7.10;99.90;;;;;;5066402;28;20290;-75
2023/03/05 11:06:34;;;;;;;7.53;1.13;;;7.00;99.90;;;;;;5066463;28;20240;-76
2023/03/05 11:09:17;;;;;;;1.85;1.13;;;7.10;99.90;;;;;;5068601;28;20219;-75
2023/03/05 11:11:44;;;;;;;1.33;0.70;;;7.00;99.90;;;;;;5064619;28;20211;-77
2023/03/05 11:14:29;;;;;;;3.75;1.40;;;7.00;99.90;;;;;;5059714;28;20202;-76
2023/03/05 11:16:57;;;;;;;5.70;2.60;;;7.00;99.90;;;;;;5054778;28;20285;-77
2023/03/05 11:19:28;;;;;;;5.22;2.40;;;6.80;99.90;;;;;;5055096;28;20224;-76
2023/03/05 11:22:17;;;;;;;4.15;2.03;;;6.70;99.90;;;;;;5054397;28;20209;-75
2023/03/05 11:24:45;;;;;;;3.00;1.92;;;6.50;99.90;;;;;;5051977;28;20205;-77
2023/03/05 11:27:25;;;;;;;3.67;2.22;;;6.50;99.90;;;;;;5052832;28;20198;-77
2023/03/05 11:29:53;;;;;;;7.28;2.42;;;6.60;99.90;;;;;;5052695;28;20640;-75
2023/03/05 11:32:23;;;;;;;5.63;1.70;;;6.70;99.90;;;;;;5055610;28;20211;-76
2023/03/05 11:34:50;;;;;;;3.30;1.60;;;6.80;99.90;;;;;;5050426;28;20229;-76
2023/03/05 11:37:25;;;;;;;7.03;2.00;;;6.90;99.90;;;;;;5056289;28;20199;-76
2023/03/05 11:40:17;;;;;;;2.03;1.05;;;6.90;99.90;;;;;;5050659;28;20854;-75
2023/03/05 11:42:45;;;;;;;7.18;1.00;;;6.80;99.90;;;;;;5053408;28;20206;-76
2023/03/05 11:45:18;;;;;;;1.95;0.93;;;6.60;99.90;;;;;;5055199;28;20229;-76
2023/03/05 11:47:49;;;;;;;3.03;1.60;;;6.50;99.90;;;;;;5065118;28;20201;-76
2023/03/05 11:50:23;;;;;;;3.83;1.33;;;6.30;99.90;;;;;;5064772;28;20235;-76
2023/03/05 11:52:54;;;;;;;4.70;2.58;;;6.30;99.90;;;;;;5066204;28;20633;-75
2023/03/05 11:55:30;;;;;;;3.13;2.08;;;6.50;99.90;;;;;;5052798;28;20327;-74
2023/03/05 11:58:10;;;;;;;4.25;2.20;;;6.60;99.90;;;;;;5047811;28;20203;-73
2023/03/05 12:00:41;;;;;;;7.05;2.42;;;6.80;99.90;;;;;;5050837;28;20214;-75
2023/03/05 12:03:13;;;;;;;5.50;2.55;;;6.90;99.90;;;;;;5048238;28;20660;-75
2023/03/05 12:05:44;;;;;;;6.78;2.83;;;6.80;99.90;;;;;;5053983;28;20252;-75
2023/03/05 12:08:18;;;;;;;11.57;3.80;;;6.80;99.90;;;;;;5053696;28;20254;-74
2023/03/05 12:10:45;;;;;;;11.98;6.38;;;6.80;99.90;;;;;;5050655;28;20262;-76
2023/03/05 12:13:22;;;;;;;13.90;8.38;;;6.90;99.90;;;;;;5053812;28;20673;-76
2023/03/05 12:16:03;;;;;;;17.70;8.48;;;7.10;99.90;;;;;;5054476;28;20256;-75
2023/03/05 12:18:39;;;;;;;15.73;8.02;;;7.10;99.90;;;;;;5048098;28;20366;-74
2023/03/05 12:21:15;;;;;;;4.22;3.08;;;7.20;99.90;;;;;;5048378;28;20598;-74
2023/03/05 12:23:49;;;;;;;5.00;3.55;;;7.10;99.90;;;;;;5057496;28;20221;-74
2023/03/05 12:26:16;;;;;;;6.13;2.42;;;7.30;99.90;;;;;;5053426;28;20295;-77
2023/03/05 12:28:56;;;;;;;2.13;1.30;;;7.60;99.90;;;;;;5048881;28;20309;-76
2023/03/05 12:31:38;;;;;;;1.55;1.05;;;7.60;99.90;;;;;;5050512;28;20306;-77
2023/03/05 12:34:35;;;;;;;2.60;0.95;;;7.70;99.90;;;;;;5055586;28;20705;-76
2023/03/05 12:37:03;;;;;;;4.85;1.55;;;8.00;99.90;;;;;;5047984;28;20207;-78
2023/03/05 12:39:51;;;;;;;2.63;0.90;;;8.00;99.90;;;;;;5053472;28;20230;-78
2023/03/05 12:42:45;;;;;;;2.05;1.30;;;8.00;99.90;;;;;;5054127;28;20225;-76
2023/03/05 12:45:41;;;;;;;2.65;1.45;;;8.00;99.90;;;;;;5051356;28;20204;-76
2023/03/05 12:48:45;;;;;;;3.50;1.73;;;8.10;99.90;;;;;;5050640;28;20467;-81
2023/03/05 12:51:14;;;;;;;3.60;1.30;;;8.30;99.90;;;;;;5054070;28;20195;-78
2023/03/05 12:53:51;;;;;;;6.70;1.70;;;8.50;99.90;;;;;;5058169;28;20207;-78
2023/03/05 12:56:26;;;;;;;3.58;1.20;;;8.40;99.90;;;;;;5050659;28;20235;-78
2023/03/05 12:58:57;;;;;;;3.95;1.42;;;8.50;99.90;;;;;;5054716;28;20245;-74
2023/03/05 13:01:36;;;;;;;3.50;1.17;;;8.50;99.90;;;;;;5055464;28;20199;-76
2023/03/05 13:04:09;;;;;;;2.15;1.13;;;8.60;99.90;;;;;;5059499;28;20215;-75
2023/03/05 13:06:38;;;;;;;2.67;1.45;;;8.70;99.90;;;;;;5059495;28;20213;-76
2023/03/05 13:09:16;;;;;;;5.82;1.40;;;8.80;99.90;;;;;;5053911;28;20635;-75
2023/03/05 13:11:47;;;;;;;2.17;1.15;;;9.00;99.90;;;;;;5060487;28;20320;-74